Time;durP1;ratioP1;P1;durP2;ratioP2;P2;SDS_P1;SDS_P2;PMS_P1;PMS_P2;Temp;Humidity;BMP_temperature;BMP_pressure;BME280_temperature;BME280_humidity;BME280_pressure;Samples;Min_cycle;Max_cycle;Signal;HPM_P1;HPM_P2
2024/01/04 00:03:06;;;;;;;3.57;1.60;;;9.20;99.90;;;7.20;100.00;98588.50;10244873;28;96638;-83
2024/01/04 00:08:09;;;;;;;2.67;1.27;;;9.10;99.90;;;7.05;100.00;98576.31;10246030;28;96532;-83
2024/01/04 00:13:13;;;;;;;3.93;1.30;;;9.10;99.90;;;7.00;100.00;98592.72;10284089;28;96534;-83
2024/01/04 00:18:16;;;;;;;4.23;1.50;;;9.00;99.90;;;6.94;100.00;98593.44;10236867;28;96675;-83
2024/01/04 00:23:20;;;;;;;3.97;1.50;;;8.90;99.90;;;6.97;100.00;98595.72;10251641;28;97597;-83
2024/01/04 00:28:24;;;;;;;3.80;1.30;;;8.90;99.90;;;7.02;100.00;98597.81;10253200;28;96533;-83
2024/01/04 00:33:27;;;;;;;6.43;1.43;;;8.90;99.90;;;7.07;100.00;98592.78;10253308;28;96462;-83
2024/01/04 00:38:30;;;;;;;4.30;1.30;;;9.00;99.90;;;7.17;100.00;98594.16;10253860;28;97455;-83
2024/01/04 00:43:36;;;;;;;2.00;1.07;;;9.00;99.90;;;7.32;100.00;98583.56;10253152;28;96586;-83
2024/01/04 00:48:40;;;;;;;2.30;1.20;;;9.10;99.90;;;7.42;100.00;98564.75;10252599;28;97823;-83
2024/01/04 00:53:44;;;;;;;3.77;1.33;;;9.30;99.90;;;7.50;100.00;98559.34;10229665;28;96736;-84
2024/01/04 00:58:47;;;;;;;2.10;0.70;;;9.40;99.90;;;7.58;100.00;98567.16;10248668;28;98089;-83
2024/01/04 01:03:51;;;;;;;3.00;0.73;;;9.40;99.90;;;7.59;100.00;98565.31;10244596;28;96688;-83
2024/01/04 01:08:54;;;;;;;5.20;1.17;;;9.50;99.90;;;7.58;100.00;98568.97;10263188;28;97531;-83
2024/01/04 01:13:58;;;;;;;2.63;1.00;;;9.50;99.90;;;7.56;100.00;98550.66;10246411;28;97394;-83
2024/01/04 01:19:02;;;;;;;4.77;1.30;;;9.50;99.90;;;7.55;100.00;98541.09;10228724;28;97668;-83
2024/01/04 01:24:06;;;;;;;2.70;1.17;;;9.50;99.90;;;7.59;100.00;98533.59;10259328;28;96769;-83
2024/01/04 01:29:10;;;;;;;2.63;0.93;;;9.50;99.90;;;7.64;100.00;98533.84;10247741;28;97799;-83
2024/01/04 01:34:13;;;;;;;2.63;0.90;;;9.50;99.90;;;7.67;100.00;98542.22;10238227;28;96654;-84
2024/01/04 01:39:17;;;;;;;2.30;1.07;;;9.50;99.90;;;7.64;100.00;98553.19;10248233;28;96800;-83
2024/01/04 01:44:23;;;;;;;3.60;1.20;;;9.50;99.90;;;7.60;100.00;98559.03;10277171;28;97401;-83
2024/01/04 01:49:26;;;;;;;3.00;1.10;;;9.50;99.90;;;7.50;100.00;98556.72;10271304;28;99167;-83
2024/01/04 01:54:30;;;;;;;5.03;1.30;;;9.40;99.90;;;7.45;100.00;98564.38;10276542;28;96717;-83
2024/01/04 01:59:34;;;;;;;2.67;1.20;;;9.40;99.90;;;7.36;100.00;98576.88;10282609;28;98181;-83
2024/01/04 02:04:40;;;;;;;6.43;1.37;;;9.30;99.90;;;7.31;100.00;98571.31;10254574;28;96671;-84
2024/01/04 02:09:43;;;;;;;2.30;1.10;;;9.20;99.90;;;7.25;100.00;98562.31;10259092;28;97928;-83
2024/01/04 02:14:51;;;;;;;1.47;0.80;;;9.10;99.90;;;7.22;100.00;98541.56;10258671;28;96731;-83
2024/01/04 02:19:57;;;;;;;1.93;1.10;;;9.10;99.90;;;7.21;100.00;98537.31;10258906;28;96700;-83
2024/01/04 02:25:00;;;;;;;2.80;1.30;;;9.10;99.90;;;7.20;100.00;98537.50;10269706;28;97754;-83
2024/01/04 02:30:04;;;;;;;5.57;1.00;;;9.10;99.90;;;7.11;100.00;98541.25;10258694;28;96634;-83
2024/01/04 02:35:08;;;;;;;1.63;0.90;;;9.00;99.90;;;6.91;100.00;98575.34;10257539;28;96939;-82
2024/01/04 02:40:11;;;;;;;3.43;1.20;;;8.90;99.90;;;6.71;100.00;98581.16;10291291;28;96866;-82
2024/01/04 02:45:15;;;;;;;7.77;3.67;;;8.70;99.90;;;6.53;100.00;98585.97;10270079;28;97336;-83
2024/01/04 02:50:19;;;;;;;5.13;1.83;;;8.50;99.90;;;6.38;100.00;98587.81;10272454;28;96504;-83
2024/01/04 02:55:22;;;;;;;2.83;1.27;;;8.40;99.90;;;6.46;100.00;98611.47;10254857;28;96661;-83
2024/01/04 03:00:27;;;;;;;2.60;1.40;;;8.40;99.90;;;6.54;100.00;98611.41;10256795;28;97833;-83
2024/01/04 03:05:30;;;;;;;3.37;1.20;;;8.40;99.90;;;6.81;100.00;98617.03;10265684;28;96569;-83
2024/01/04 03:10:35;;;;;;;4.17;1.47;;;8.60;99.90;;;6.97;100.00;98588.63;10270301;28;98188;-83
2024/01/04 03:15:38;;;;;;;3.37;1.33;;;8.80;99.90;;;7.15;100.00;98582.13;10243995;28;96922;-82
2024/01/04 03:20:42;;;;;;;4.97;1.30;;;9.00;99.90;;;7.18;100.00;98585.22;10263337;28;96689;-82
2024/01/04 03:25:46;;;;;;;3.67;1.07;;;9.00;99.90;;;7.20;100.00;98577.94;10283166;28;96725;-83
2024/01/04 03:30:50;;;;;;;3.13;0.93;;;9.10;99.90;;;7.16;100.00;98589.88;10249944;28;96605;-83
2024/01/04 03:35:54;;;;;;;6.03;2.13;;;9.10;99.90;;;7.04;100.00;98587.88;10247277;28;98361;-83
2024/01/04 03:41:00;;;;;;;3.83;2.03;;;9.00;99.90;;;6.88;100.00;98580.97;10250545;28;97167;-82
2024/01/04 03:46:09;;;;;;;2.63;1.70;;;8.90;99.90;;;6.71;100.00;98554.75;10245532;28;96653;-83
2024/01/04 03:51:15;;;;;;;5.68;1.60;;;8.70;99.90;;;6.59;100.00;98552.75;10284172;28;96808;-83
2024/01/04 03:56:18;;;;;;;5.80;2.13;;;8.60;99.90;;;6.46;100.00;98536.75;10282722;28;97707;-83
2024/01/04 04:01:22;;;;;;;4.37;1.80;;;8.40;99.90;;;6.28;100.00;98519.47;10246249;28;98435;-83
2024/01/04 04:06:26;;;;;;;5.47;2.00;;;8.30;99.90;;;6.12;100.00;98524.94;10281326;28;98509;-83
2024/01/04 04:11:29;;;;;;;4.87;2.70;;;8.10;99.90;;;5.98;100.00;98531.78;10281526;28;98738;-83
2024/01/04 04:16:33;;;;;;;10.17;5.13;;;8.00;99.90;;;5.83;100.00;98533.56;10242776;28;96654;-83
2024/01/04 04:21:36;;;;;;;12.10;5.73;;;7.80;99.90;;;5.61;100.00;98556.28;10247513;28;97852;-83
2024/01/04 04:26:40;;;;;;;10.83;4.00;;;7.60;99.90;;;5.43;100.00;98561.84;10246339;28;98862;-83
2024/01/04 04:31:47;;;;;;;6.43;3.10;;;7.40;99.90;;;5.31;100.00;98586.94;10248268;28;98535;-83
2024/01/04 04:36:51;;;;;;;6.07;2.30;;;7.30;99.90;;;5.20;100.00;98597.88;10231957;28;98286;-82
2024/01/04 04:41:55;;;;;;;7.03;1.90;;;7.20;99.90;;;5.21;100.00;98584.53;10276619;28;98729;-83
2024/01/04 04:46:59;;;;;;;6.23;2.00;;;7.20;99.90;;;5.23;100.00;98581.75;10230037;28;97257;-82
2024/01/04 04:52:03;;;;;;;31.97;13.40;;;7.20;99.90;;;5.25;100.00;98579.75;10273645;28;98465;-83
2024/01/04 04:57:07;;;;;;;3.53;1.33;;;7.20;99.90;;;5.35;100.00;98565.38;10246188;28;97489;-83
2024/01/04 05:02:11;;;;;;;4.00;1.53;;;7.30;99.90;;;5.50;100.00;98561.97;10243134;28;97249;-83
2024/01/04 05:07:15;;;;;;;1.63;0.53;;;7.40;99.90;;;5.83;100.00;98557.28;10238446;28;97779;-83
2024/01/04 05:12:19;;;;;;;2.53;0.40;;;7.70;99.90;;;6.16;100.00;98557.84;10278942;28;96972;-83
2024/01/04 05:17:23;;;;;;;1.50;0.50;;;8.00;99.90;;;6.39;100.00;98557.78;10249418;28;96575;-83
2024/01/04 05:22:26;;;;;;;2.00;0.30;;;8.30;99.90;;;6.76;100.00;98537.56;10279004;28;96609;-83
2024/01/04 05:27:31;;;;;;;1.50;0.60;;;8.60;99.90;;;7.16;100.00;98539.69;10238784;28;96476;-83
2024/01/04 05:32:35;;;;;;;1.33;0.23;;;8.90;99.90;;;7.48;100.00;98537.56;10244405;28;96677;-83
2024/01/04 05:37:39;;;;;;;0.63;0.20;;;9.30;99.90;;;7.75;95.34;98542.09;10274269;28;96701;-84
2024/01/04 05:42:43;;;;;;;0.63;0.20;;;9.50;99.90;;;8.06;88.92;98540.91;10237867;28;97489;-84
2024/01/04 05:47:47;;;;;;;0.63;0.10;;;9.90;99.90;;;8.42;82.76;98535.50;10236196;28;98453;-84
2024/01/04 05:52:51;;;;;;;0.47;0.33;;;10.20;99.90;;;8.67;80.91;98554.38;10248903;28;98489;-84
2024/01/04 05:57:54;;;;;;;1.80;0.10;;;10.40;99.90;;;8.86;77.42;98547.53;10268499;28;97494;-84
2024/01/04 06:02:58;;;;;;;0.43;0.10;;;10.60;99.90;;;8.97;76.66;98557.56;10248374;28;96604;-82
2024/01/04 06:08:03;;;;;;;0.20;0.20;;;10.80;98.80;;;9.00;75.28;98553.72;10246595;28;96699;-84
2024/01/04 06:13:07;;;;;;;0.17;0.10;;;10.80;99.20;;;8.89;76.51;98571.00;10237313;28;97519;-84
2024/01/04 06:18:11;;;;;;;0.70;0.20;;;10.80;99.20;;;8.75;77.81;98577.22;10237561;28;97566;-84
2024/01/04 06:23:16;;;;;;;2.17;0.77;;;10.60;99.00;;;8.67;79.02;98577.41;10234541;28;100545;-84
2024/01/04 06:28:20;;;;;;;0.80;0.30;;;10.50;98.80;;;8.57;78.67;98588.31;10237092;28;96696;-84
2024/01/04 06:33:23;;;;;;;2.20;0.57;;;10.40;98.90;;;8.54;78.82;98588.72;10241301;28;96528;-84
2024/01/04 06:38:27;;;;;;;1.63;0.47;;;10.40;98.80;;;8.43;79.84;98589.25;10274810;28;97518;-84
2024/01/04 06:43:31;;;;;;;1.37;0.40;;;10.30;98.80;;;8.37;79.41;98590.84;10242303;28;96555;-84
2024/01/04 06:48:35;;;;;;;2.03;0.40;;;10.20;98.50;;;8.33;80.65;98606.25;10251011;28;96738;-84
2024/01/04 06:53:39;;;;;;;1.50;0.50;;;10.20;99.40;;;8.26;80.62;98601.94;10251375;28;96536;-83
2024/01/04 06:58:42;;;;;;;2.20;0.60;;;10.10;99.30;;;8.17;82.61;98611.03;10247604;28;96671;-83
2024/01/04 07:03:49;;;;;;;0.73;0.33;;;10.10;99.30;;;8.14;81.04;98617.50;10252722;28;96557;-84
2024/01/04 07:08:54;;;;;;;0.90;0.30;;;10.00;99.40;;;8.16;80.93;98612.84;10252219;28;96705;-84
2024/01/04 07:13:58;;;;;;;0.67;0.40;;;10.00;99.30;;;8.18;81.27;98612.66;10231658;28;98871;-84
2024/01/04 07:19:01;;;;;;;1.63;0.30;;;10.00;99.40;;;8.23;82.84;98621.66;10274852;28;97801;-84
2024/01/04 07:24:05;;;;;;;0.30;0.27;;;10.00;99.10;;;8.47;80.20;98625.75;10252584;28;97354;-84
2024/01/04 07:29:09;;;;;;;1.33;0.37;;;10.20;99.20;;;8.74;78.74;98602.91;10262846;28;96949;-84
2024/01/04 07:34:12;;;;;;;2.13;0.30;;;10.40;98.50;;;8.98;77.60;98608.72;10278611;28;97483;-84
2024/01/04 07:39:17;;;;;;;0.57;0.30;;;10.60;98.70;;;9.31;75.63;98588.50;10283589;28;96781;-84
2024/01/04 07:44:20;;;;;;;0.90;0.27;;;10.90;98.00;;;9.74;72.05;98592.69;10250604;28;97861;-84
2024/01/04 07:49:24;;;;;;;0.63;0.20;;;11.20;97.60;;;10.17;69.79;98593.13;10247114;28;96679;-84
2024/01/04 07:54:28;;;;;;;0.43;0.20;;;11.50;96.70;;;10.63;67.18;98587.00;10250740;28;96694;-84
2024/01/04 07:59:48;;;;;;;1.37;0.37;;;11.90;96.50;;;11.05;64.98;98590.97;10251977;28;96485;-84
2024/01/04 08:04:53;;;;;;;1.53;0.43;;;12.20;96.20;;;11.32;63.15;98585.53;10253415;28;96930;-85
2024/01/04 08:09:57;;;;;;;1.53;0.50;;;12.50;95.80;;;11.44;63.84;98579.34;10253154;28;96596;-83
2024/01/04 08:15:00;;;;;;;1.63;0.30;;;12.60;95.60;;;11.50;61.71;98586.47;10250131;28;97073;-85
2024/01/04 08:20:05;;;;;;;1.40;0.40;;;12.80;94.60;;;11.65;62.83;98586.19;10212186;28;96501;-84
2024/01/04 08:25:09;;;;;;;0.80;0.30;;;13.00;94.80;;;11.74;60.69;98597.38;10249868;28;96978;-84
2024/01/04 08:30:13;;;;;;;1.53;0.30;;;13.10;93.80;;;11.49;63.60;98603.44;10260132;28;98049;-84
2024/01/04 08:35:17;;;;;;;1.37;0.33;;;13.00;94.00;;;11.08;64.08;98600.34;10246888;28;96652;-83
2024/01/04 08:40:21;;;;;;;1.77;0.40;;;12.70;94.10;;;10.56;68.13;98608.25;10250188;28;97520;-84
2024/01/04 08:45:25;;;;;;;1.07;0.50;;;12.30;94.90;;;10.22;73.02;98617.22;10247228;28;96517;-84
2024/01/04 08:50:28;;;;;;;1.10;0.40;;;11.90;96.20;;;9.99;72.26;98596.38;10247993;28;97389;-83
2024/01/04 08:55:32;;;;;;;1.00;0.30;;;11.70;96.20;;;10.14;69.83;98609.47;10240023;28;97099;-84
2024/01/04 09:00:36;;;;;;;1.37;0.40;;;11.80;95.70;;;10.33;70.02;98615.84;10238960;28;97923;-84
2024/01/04 09:05:40;;;;;;;3.10;0.60;;;12.00;95.50;;;10.53;65.86;98602.53;10242554;28;97505;-83
2024/01/04 09:10:43;;;;;;;2.07;0.50;;;12.20;94.50;;;10.70;65.46;98601.09;10215864;28;97812;-85
2024/01/04 09:15:47;;;;;;;2.70;0.40;;;12.40;94.20;;;10.82;64.98;98583.47;10255770;28;98004;-85
2024/01/04 09:20:50;;;;;;;1.40;0.60;;;12.50;93.70;;;10.99;65.64;98575.88;10249196;28;96552;-84
2024/01/04 09:25:54;;;;;;;3.40;1.30;;;12.70;94.10;;;11.11;64.41;98586.66;10242136;28;97126;-84
2024/01/04 09:30:58;;;;;;;0.93;0.23;;;12.80;93.80;;;11.03;60.63;98579.72;10251982;28;97197;-84
2024/01/04 09:36:02;;;;;;;0.47;0.20;;;12.70;92.00;;;10.87;61.27;98581.00;10251601;28;96607;-83
2024/01/04 09:41:33;;;;;;;1.60;0.40;;;12.60;91.90;;;10.92;61.23;98586.53;10249168;28;97312;-83
2024/01/04 09:46:38;;;;;;;0.63;0.20;;;12.60;92.30;;;10.98;61.32;98582.22;10277007;28;96635;-84
2024/01/04 09:51:42;;;;;;;0.20;0.13;;;12.60;92.00;;;11.07;59.54;98577.47;10249354;28;96527;-83
2024/01/04 09:56:49;;;;;;;0.10;0.10;;;12.70;91.40;;;11.20;57.29;98585.38;10247912;28;96608;-84
2024/01/04 10:01:54;;;;;;;1.67;0.27;;;12.80;90.60;;;11.23;57.97;98582.31;10245740;28;97554;-83
2024/01/04 10:07:02;;;;;;;0.50;0.10;;;12.90;90.50;;;11.19;56.70;98599.72;10218521;28;96638;-84
2024/01/04 10:12:11;;;;;;;0.33;0.23;;;12.90;90.00;;;11.15;56.92;98611.78;10237130;28;99133;-83
2024/01/04 10:17:16;;;;;;;0.53;0.30;;;12.80;89.70;;;11.18;57.49;98632.63;10214362;28;97719;-83
2024/01/04 10:22:23;;;;;;;0.93;0.40;;;12.80;90.20;;;11.10;60.43;98599.13;10247050;28;96911;-84
2024/01/04 10:27:27;;;;;;;4.23;0.60;;;12.80;91.10;;;11.14;63.13;98652.69;10257726;28;98010;-83
2024/01/04 10:32:31;;;;;;;0.83;0.30;;;12.80;92.20;;;10.93;68.48;98659.91;10250561;28;97643;-82
2024/01/04 10:37:35;;;;;;;2.00;0.53;;;12.60;93.80;;;10.61;70.78;98647.47;10239970;28;98875;-82
2024/01/04 10:42:38;;;;;;;1.20;0.47;;;12.30;94.50;;;10.33;72.87;98653.81;10250414;28;96978;-82
2024/01/04 10:47:48;;;;;;;1.73;0.70;;;12.00;95.00;;;10.11;72.38;98636.41;10264387;28;97085;-81
2024/01/04 10:52:57;;;;;;;1.80;0.70;;;11.80;95.20;;;10.08;71.70;98647.44;10244010;28;97147;-82
2024/01/04 10:58:02;;;;;;;0.80;0.37;;;11.70;94.90;;;10.13;69.82;98624.56;10252881;28;97729;-82
2024/01/04 11:03:09;;;;;;;0.77;0.40;;;11.80;94.20;;;10.28;66.26;98621.75;10245505;28;98395;-81
2024/01/04 11:08:14;;;;;;;0.73;0.47;;;12.00;93.50;;;10.47;64.18;98624.59;10246467;28;96581;-82
2024/01/04 11:13:19;;;;;;;1.10;0.40;;;12.10;92.70;;;10.64;63.03;98615.19;10225640;28;97489;-82
2024/01/04 11:19:02;;;;;;;1.30;0.30;;;12.30;92.20;;;10.78;60.18;98622.09;10249958;28;98117;-82
2024/01/04 11:24:22;;;;;;;1.00;0.47;;;12.50;91.10;;;10.83;61.31;98621.50;10236196;28;98368;-82
2024/01/04 11:29:27;;;;;;;0.97;0.20;;;12.50;91.50;;;10.86;59.75;98619.25;10248878;28;96640;-82
2024/01/04 11:34:30;;;;;;;3.63;1.53;;;12.50;90.60;;;10.91;60.06;98611.44;10238174;28;97465;-82
2024/01/04 11:39:56;;;;;;;1.40;1.10;;;12.60;90.70;;;10.95;61.47;98619.81;10242560;28;98082;-82
2024/01/04 11:45:04;;;;;;;1.03;0.50;;;12.60;91.10;;;10.78;65.00;98643.38;10240550;28;97946;-82
2024/01/04 11:50:24;;;;;;;1.13;0.30;;;12.50;92.20;;;10.56;67.94;98626.03;10274585;28;98293;-82
2024/01/04 11:55:29;;;;;;;1.20;0.30;;;12.20;93.50;;;10.34;70.00;98682.00;10247144;28;96765;-82
2024/01/04 12:00:35;;;;;;;0.80;0.50;;;12.00;94.20;;;10.09;71.72;98649.91;10247363;28;97616;-82
2024/01/04 12:05:50;;;;;;;0.47;0.20;;;11.70;94.50;;;9.97;71.16;98626.81;10233779;28;96576;-82
2024/01/04 12:10:56;;;;;;;1.13;0.60;;;11.50;94.40;;;9.98;69.79;98609.88;10246828;28;97867;-82
2024/01/04 12:16:03;;;;;;;1.13;0.40;;;11.60;94.10;;;10.03;70.91;98624.16;10256688;28;97278;-82
2024/01/04 12:21:08;;;;;;;0.87;0.40;;;11.60;94.30;;;10.12;68.86;98619.47;10242614;28;96583;-82
2024/01/04 12:26:23;;;;;;;0.67;0.40;;;11.70;93.70;;;10.15;68.27;98611.09;10247972;28;96642;-82
2024/01/04 12:31:27;;;;;;;1.37;0.40;;;11.80;93.60;;;10.17;69.75;98609.88;10249355;28;97467;-82
2024/01/04 12:36:32;;;;;;;1.70;0.90;;;11.80;93.90;;;10.10;71.38;98616.19;10281860;28;97566;-82
2024/01/04 12:41:37;;;;;;;1.13;0.40;;;11.70;94.40;;;10.08;70.08;98628.88;10247533;28;96645;-82
2024/01/04 12:46:43;;;;;;;0.90;0.37;;;11.70;94.10;;;10.11;71.24;98655.81;10250863;28;96678;-81
2024/01/04 12:51:47;;;;;;;0.47;0.20;;;11.70;94.50;;;10.08;70.19;98650.09;10257628;28;96599;-82
2024/01/04 12:56:54;;;;;;;0.60;0.30;;;11.70;94.30;;;10.09;70.84;98646.41;10277791;28;98058;-82
2024/01/04 13:01:59;;;;;;;0.17;0.10;;;11.70;94.40;;;10.15;69.81;98650.91;10225656;28;96832;-83
2024/01/04 13:07:03;;;;;;;0.63;0.30;;;11.80;93.90;;;10.21;71.64;98662.56;10237767;28;98679;-82
2024/01/04 13:12:08;;;;;;;1.73;0.70;;;11.80;94.60;;;10.13;72.26;98661.72;10240833;28;98032;-82
2024/01/04 13:17:11;;;;;;;1.73;0.70;;;11.80;94.70;;;10.05;71.77;98647.84;10276921;28;98911;-82
2024/01/04 13:22:15;;;;;;;0.60;0.30;;;11.70;94.70;;;9.99;70.92;98664.56;10251321;28;98164;-82
2024/01/04 13:27:19;;;;;;;1.13;0.40;;;11.60;94.10;;;9.98;68.60;98676.19;10264733;28;96607;-82
2024/01/04 13:32:23;;;;;;;0.90;0.30;;;11.60;93.80;;;9.99;68.87;98680.50;10244600;28;98182;-82
2024/01/04 13:37:26;;;;;;;1.17;0.50;;;11.60;93.80;;;10.02;68.77;98685.41;10223017;28;96739;-82
2024/01/04 13:42:30;;;;;;;1.90;1.07;;;11.70;93.70;;;9.98;68.19;98698.25;10252242;28;98522;-83
2024/01/04 13:47:34;;;;;;;1.07;0.20;;;11.70;93.50;;;10.02;66.94;98731.34;10261314;28;97473;-84
2024/01/04 13:52:38;;;;;;;4.33;2.00;;;11.70;93.10;;;10.10;66.79;98756.88;10280278;28;96625;-82
2024/01/04 13:57:42;;;;;;;1.47;0.50;;;11.70;93.20;;;10.08;66.74;98759.72;10245547;28;96638;-83
2024/01/04 14:02:45;;;;;;;8.47;5.33;;;11.70;93.10;;;10.01;68.43;98763.38;10240205;28;97869;-82
2024/01/04 14:07:49;;;;;;;45.17;22.47;;;11.70;93.20;;;9.92;67.94;98768.84;10255176;28;96738;-82
2024/01/04 14:12:52;;;;;;;6.37;3.67;;;11.70;93.30;;;9.87;67.60;98773.94;10247636;28;97035;-83
2024/01/04 14:17:56;;;;;;;1.70;0.53;;;11.60;93.30;;;9.81;67.83;98798.59;10223914;28;96737;-83
2024/01/04 14:23:00;;;;;;;2.10;1.10;;;11.50;93.30;;;9.77;68.97;98794.69;10243885;28;96618;-82
2024/01/04 14:28:03;;;;;;;1.23;0.60;;;11.40;93.40;;;9.70;69.67;98809.75;10237052;28;96645;-82
2024/01/04 14:33:07;;;;;;;2.10;0.70;;;11.40;93.50;;;9.65;70.07;98820.13;10228540;28;98373;-82
2024/01/04 14:38:11;;;;;;;3.90;1.80;;;11.40;93.70;;;9.56;70.07;98830.09;10236611;28;96578;-82
2024/01/04 14:43:14;;;;;;;0.83;0.30;;;11.30;93.80;;;9.52;71.02;98833.31;10241348;28;96596;-82
2024/01/04 14:48:18;;;;;;;1.03;0.40;;;11.20;94.00;;;9.48;71.24;98826.78;10218036;28;96585;-82
2024/01/04 14:53:22;;;;;;;0.33;0.20;;;11.20;94.10;;;9.43;71.69;98835.31;10227425;28;97619;-82
2024/01/04 14:58:25;;;;;;;0.70;0.20;;;11.20;94.20;;;9.38;71.91;98843.84;10249451;28;96654;-82
2024/01/04 15:03:28;;;;;;;1.20;0.40;;;11.10;94.30;;;9.31;72.07;98844.81;10253346;28;96816;-82
2024/01/04 15:08:33;;;;;;;1.30;0.40;;;11.00;94.40;;;9.27;72.75;98846.19;10278922;28;96611;-82
2024/01/04 15:13:37;;;;;;;1.60;0.70;;;11.00;94.70;;;9.26;72.65;98849.88;10243717;28;97468;-81
2024/01/04 15:18:40;;;;;;;2.93;0.93;;;11.00;94.50;;;9.28;72.56;98859.25;10234620;28;97260;-82
2024/01/04 15:23:44;;;;;;;2.03;0.90;;;10.90;94.40;;;9.29;72.96;98863.53;10273833;28;98514;-82
2024/01/04 15:28:47;;;;;;;3.33;1.07;;;11.00;94.50;;;9.22;72.85;98873.28;10267576;28;96493;-81
2024/01/04 15:33:51;;;;;;;1.73;0.60;;;10.90;94.50;;;9.20;73.39;98874.50;10258863;28;96554;-82
2024/01/04 15:38:55;;;;;;;3.53;1.70;;;10.90;94.60;;;9.11;74.16;98877.25;10247625;28;96618;-81
2024/01/04 15:44:00;;;;;;;2.63;1.03;;;10.90;94.60;;;9.01;74.34;98879.44;10245820;28;96708;-81
2024/01/04 15:49:03;;;;;;;3.43;0.70;;;10.80;94.80;;;8.96;74.82;98896.91;10244402;28;98875;-81
2024/01/04 15:54:07;;;;;;;1.67;0.60;;;10.70;94.90;;;8.99;73.81;98891.22;10242844;28;97181;-81
2024/01/04 15:59:11;;;;;;;0.80;0.40;;;10.70;94.90;;;8.99;73.66;98889.38;10250139;28;98544;-82
2024/01/04 16:04:14;;;;;;;2.63;0.83;;;10.70;95.00;;;8.98;73.30;98889.56;10248836;28;98260;-82
2024/01/04 16:09:18;;;;;;;2.40;1.00;;;10.60;94.80;;;8.98;73.40;98886.94;10260272;28;96583;-81
2024/01/04 16:14:22;;;;;;;2.47;1.00;;;10.60;94.80;;;8.93;74.78;98902.56;10245303;28;97139;-81
2024/01/04 16:19:26;;;;;;;2.70;1.10;;;10.60;94.90;;;8.87;74.29;98892.72;10235777;28;96600;-81
2024/01/04 16:24:29;;;;;;;2.63;0.60;;;10.60;95.00;;;8.87;73.78;98903.31;10268622;28;96757;-82
2024/01/04 16:29:33;;;;;;;2.77;1.17;;;10.50;94.90;;;8.91;73.96;98905.41;10245428;28;96749;-81
2024/01/04 16:34:37;;;;;;;1.53;0.80;;;10.60;94.90;;;8.92;72.38;98916.81;10240220;28;96643;-82
2024/01/04 16:39:41;;;;;;;6.83;2.33;;;10.50;94.60;;;8.92;71.98;98906.22;10255835;28;96569;-81
2024/01/04 16:44:44;;;;;;;3.30;0.93;;;10.60;94.50;;;8.88;72.13;98908.44;10243235;28;96879;-82
2024/01/04 16:49:48;;;;;;;1.87;0.53;;;10.60;94.40;;;8.88;71.66;98910.28;10250349;28;96513;-82
2024/01/04 16:54:52;;;;;;;1.20;0.30;;;10.60;94.10;;;8.94;70.65;98920.94;10250468;28;97052;-82
2024/01/04 16:59:56;;;;;;;2.13;0.40;;;10.60;93.80;;;8.97;69.68;98917.09;10249322;28;97899;-81
2024/01/04 17:04:59;;;;;;;1.67;0.70;;;10.60;93.70;;;8.94;69.62;98917.47;10243460;28;97090;-81
2024/01/04 17:10:03;;;;;;;0.70;0.27;;;10.60;93.60;;;8.91;69.53;98915.19;10244100;28;96959;-82
2024/01/04 17:15:08;;;;;;;2.07;0.30;;;10.60;93.50;;;8.84;69.66;98934.50;10251659;28;96453;-82
2024/01/04 17:20:12;;;;;;;1.00;0.30;;;10.50;93.50;;;8.88;69.02;98940.25;10248686;28;97764;-82
2024/01/04 17:25:16;;;;;;;1.13;0.30;;;10.50;93.30;;;8.91;67.76;98939.84;10281391;28;96591;-82
2024/01/04 17:30:21;;;;;;;1.40;0.40;;;10.60;93.50;;;8.91;67.97;98929.25;10233798;28;96665;-82
2024/01/04 17:35:25;;;;;;;1.90;0.33;;;10.60;93.20;;;8.89;67.95;98941.06;10250658;28;96457;-82
2024/01/04 17:40:29;;;;;;;2.73;0.50;;;10.50;93.10;;;8.88;67.80;98942.06;10250094;28;96565;-82
2024/01/04 17:45:33;;;;;;;1.17;0.57;;;10.50;93.10;;;8.83;68.27;98943.44;10251901;28;96403;-82
2024/01/04 17:50:37;;;;;;;2.30;0.53;;;10.50;92.90;;;8.83;68.17;98971.78;10249207;28;98252;-82
2024/01/04 17:55:40;;;;;;;1.37;0.40;;;10.50;93.10;;;8.76;68.61;98971.69;10250603;28;96488;-82
2024/01/04 18:00:44;;;;;;;1.10;0.33;;;10.40;93.20;;;8.69;68.53;98986.66;10249750;28;96702;-82
2024/01/04 18:05:47;;;;;;;1.30;0.60;;;10.40;93.20;;;8.69;68.08;98997.25;10226573;28;96487;-82
2024/01/04 18:10:51;;;;;;;0.73;0.30;;;10.30;93.10;;;8.67;68.23;98998.47;10231280;28;96476;-82
2024/01/04 18:15:54;;;;;;;1.63;0.50;;;10.30;93.10;;;8.63;67.99;98998.00;10249819;28;96522;-83
2024/01/04 18:20:58;;;;;;;1.37;0.70;;;10.30;93.00;;;8.69;67.70;99012.31;10248816;28;96468;-82
2024/01/04 18:26:02;;;;;;;3.60;0.60;;;10.30;93.00;;;8.67;67.79;99014.34;10263569;28;96685;-83
2024/01/04 18:31:06;;;;;;;1.93;0.40;;;10.30;93.00;;;8.67;67.95;99017.81;10221981;28;96791;-82
2024/01/04 18:36:10;;;;;;;1.30;0.50;;;10.30;93.00;;;8.64;67.85;99020.84;10235289;28;96665;-83
2024/01/04 18:41:14;;;;;;;2.43;0.50;;;10.30;93.00;;;8.62;67.89;99017.53;10252775;28;96950;-83
2024/01/04 18:46:17;;;;;;;1.10;0.70;;;10.30;92.90;;;8.63;67.66;99013.06;10251473;28;98616;-83
2024/01/04 18:51:21;;;;;;;1.90;1.10;;;10.30;92.90;;;8.61;68.21;99013.25;10247959;28;96535;-83
2024/01/04 18:56:27;;;;;;;2.60;0.87;;;10.30;92.90;;;8.66;67.35;99042.66;10226649;28;98385;-82
2024/01/04 19:01:31;;;;;;;1.60;0.70;;;10.30;92.80;;;8.67;67.78;99051.44;10250842;28;97742;-82
2024/01/04 19:06:34;;;;;;;0.53;0.20;;;10.30;93.20;;;8.67;67.85;99051.44;10246004;28;98042;-82
2024/01/04 19:11:41;;;;;;;0.93;0.27;;;10.30;92.90;;;8.66;67.71;99047.97;10249241;28;96585;-83
2024/01/04 19:16:46;;;;;;;2.67;0.50;;;10.30;93.00;;;8.58;68.90;99074.53;10241395;28;96549;-83
2024/01/04 19:21:49;;;;;;;1.63;0.60;;;10.20;93.20;;;8.47;69.25;99077.63;10248645;28;96803;-82
2024/01/04 19:26:53;;;;;;;1.80;0.60;;;10.10;93.30;;;8.35;70.35;99068.47;10236356;28;97830;-83
2024/01/04 19:31:58;;;;;;;0.97;0.40;;;10.00;93.60;;;8.27;71.09;99083.41;10248056;28;96594;-82
2024/01/04 19:37:02;;;;;;;3.67;0.60;;;9.90;93.80;;;8.21;71.90;99094.72;10277562;28;97644;-83
2024/01/04 19:42:05;;;;;;;3.10;0.90;;;9.90;94.00;;;8.08;72.75;99097.16;10282131;28;97040;-83
2024/01/04 19:47:09;;;;;;;2.00;0.93;;;9.80;94.20;;;8.03;72.98;99105.59;10293632;28;96613;-83
2024/01/04 19:52:12;;;;;;;1.07;0.63;;;9.70;94.30;;;7.99;73.39;99116.75;10248179;28;98467;-82
2024/01/04 19:57:16;;;;;;;1.87;0.40;;;9.70;94.40;;;7.93;73.64;99112.16;10281847;28;97540;-82
2024/01/04 20:02:19;;;;;;;0.57;0.30;;;9.60;94.50;;;7.91;73.80;99122.09;10286943;28;98323;-82
2024/01/04 20:07:23;;;;;;;0.83;0.33;;;9.60;94.60;;;7.97;73.45;99124.84;10264900;28;96502;-82
2024/01/04 20:12:26;;;;;;;0.83;0.30;;;9.60;94.50;;;8.06;72.71;99120.31;10262415;28;98004;-81
2024/01/04 20:17:30;;;;;;;0.60;0.20;;;9.70;94.40;;;8.16;72.13;99139.44;10280842;28;96514;-82
2024/01/04 20:22:34;;;;;;;1.13;0.30;;;9.70;94.20;;;8.17;71.94;99143.72;10251367;28;97361;-82
2024/01/04 20:27:41;;;;;;;1.10;0.40;;;9.80;94.20;;;8.11;72.82;99155.00;10250586;28;98446;-81
2024/01/04 20:32:45;;;;;;;0.67;0.40;;;9.80;94.40;;;7.95;74.60;99160.41;10236866;28;96465;-82
2024/01/04 20:37:48;;;;;;;1.03;0.40;;;9.60;94.70;;;7.81;75.85;99185.81;10249172;28;96501;-81
2024/01/04 20:42:52;;;;;;;1.47;0.40;;;9.50;95.00;;;7.76;75.72;99170.47;10232497;28;97958;-81
2024/01/04 20:47:56;;;;;;;1.83;0.40;;;9.40;95.20;;;7.74;75.88;99179.56;10248702;28;98967;-82
2024/01/04 20:53:00;;;;;;;4.63;0.53;;;9.40;95.20;;;7.74;75.73;99195.44;10250994;28;97549;-82
2024/01/04 20:58:03;;;;;;;1.20;0.37;;;9.40;95.20;;;7.83;74.36;99201.50;10249506;28;96960;-82
2024/01/04 21:03:07;;;;;;;3.53;0.40;;;9.40;94.80;;;7.86;74.83;99206.47;10245272;28;97336;-82
2024/01/04 21:08:13;;;;;;;0.33;0.20;;;9.50;95.00;;;7.81;75.48;99206.16;10246373;28;97684;-82
2024/01/04 21:13:17;;;;;;;1.37;0.33;;;9.50;95.10;;;7.85;74.97;99212.72;10272890;28;97545;-82
2024/01/04 21:18:20;;;;;;;1.20;0.30;;;9.50;95.10;;;7.83;75.21;99220.00;10237303;28;96812;-82